Time;durP1;ratioP1;P1;durP2;ratioP2;P2;SDS_P1;SDS_P2;PMS_P1;PMS_P2;Temp;Humidity;BMP_temperature;BMP_pressure;BME280_temperature;BME280_humidity;BME280_pressure;Samples;Min_cycle;Max_cycle;Signal;HPM_P1;HPM_P2
2022/06/25 00:00:00;;;;;;;5.13;4.00;;;;;;;19.89;51.76;93748.84;5043475;28;20511;-77
2022/06/25 00:02:26;;;;;;;4.85;3.17;;;;;;;19.84;51.90;93741.09;5055776;28;20037;-78
2022/06/25 00:07:35;;;;;;;4.80;3.55;;;;;;;19.36;52.67;93703.22;5045661;28;20106;-77
2022/06/25 00:10:00;;;;;;;3.78;3.47;;;;;;;19.65;52.30;93734.00;5051146;28;20447;-79
2022/06/25 00:12:32;;;;;;;5.63;3.70;;;;;;;19.35;51.99;93682.84;5044788;28;20029;-78
2022/06/25 00:14:59;;;;;;;4.07;3.67;;;;;;;19.44;51.97;93691.38;5027946;28;20088;-77
2022/06/25 00:17:25;;;;;;;4.57;3.90;;;;;;;19.59;51.84;93693.09;5026208;28;20037;-76
2022/06/25 00:19:51;;;;;;;8.07;5.18;;;;;;;19.48;52.00;93692.22;5036973;28;20036;-76
2022/06/25 00:22:16;;;;;;;9.13;5.30;;;;;;;19.60;51.86;93710.81;5047456;28;20507;-80
2022/06/25 00:24:42;;;;;;;8.15;5.35;;;;;;;19.44;52.02;93687.91;5046629;28;20020;-77
2022/06/25 00:27:07;;;;;;;9.63;4.07;;;;;;;19.40;52.02;93697.91;5027660;28;20060;-78
2022/06/25 00:29:33;;;;;;;3.80;3.33;;;;;;;19.29;52.34;93695.88;5028319;28;20073;-76
2022/06/25 00:31:58;;;;;;;5.43;3.83;;;;;;;19.24;52.43;93698.13;5039149;28;20108;-77
2022/06/25 00:34:25;;;;;;;5.07;4.38;;;;;;;19.30;52.44;93713.59;5046452;28;20062;-76
2022/06/25 00:36:51;;;;;;;4.80;4.30;;;;;;;19.31;52.68;93719.78;5049522;28;20051;-76
2022/06/25 00:39:16;;;;;;;3.90;3.50;;;;;;;19.16;52.41;93696.50;5047900;28;20024;-77
2022/06/25 00:41:42;;;;;;;3.65;3.22;;;;;;;19.31;52.73;93719.78;5049238;28;20037;-78
2022/06/25 00:44:08;;;;;;;5.75;3.30;;;;;;;19.06;52.89;93678.31;5035518;28;20033;-77
2022/06/25 00:46:34;;;;;;;10.07;4.05;;;;;;;19.18;52.58;93689.59;5037821;28;20029;-75
2022/06/25 00:49:00;;;;;;;6.20;3.65;;;;;;;19.26;52.60;93685.81;5046089;28;20525;-76
2022/06/25 00:51:27;;;;;;;6.82;4.10;;;;;;;19.38;52.39;93702.88;5056252;28;20024;-77
2022/06/25 00:53:59;;;;;;;5.07;3.05;;;;;;;19.31;52.30;93687.41;5053280;28;20033;-75
2022/06/25 00:56:27;;;;;;;5.53;3.28;;;;;;;19.32;52.13;93710.53;5048868;28;20532;-78
2022/06/25 00:58:56;;;;;;;3.28;2.97;;;;;;;19.37;52.27;93707.50;5047051;28;20500;-76
2022/06/25 01:01:22;;;;;;;4.15;2.92;;;;;;;19.21;52.95;93704.25;5046528;28;20041;-78
2022/06/25 01:03:48;;;;;;;3.42;2.85;;;;;;;19.28;52.96;93715.09;5046807;28;20863;-75
2022/06/25 01:06:13;;;;;;;5.22;3.63;;;;;;;19.20;53.05;93691.94;5043262;28;20376;-75
2022/06/25 01:08:39;;;;;;;5.07;4.03;;;;;;;19.16;53.23;93685.72;5047104;28;20029;-76
2022/06/25 01:11:07;;;;;;;5.03;4.05;;;;;;;19.39;53.10;93710.59;5047625;28;20033;-78
2022/06/25 01:13:33;;;;;;;4.00;3.67;;;;;;;19.38;53.27;93706.34;5044980;28;20282;-76
2022/06/25 01:15:59;;;;;;;5.05;3.03;;;;;;;19.34;53.42;93702.84;5044253;28;20098;-75
2022/06/25 01:18:24;;;;;;;6.80;3.50;;;;;;;19.13;53.70;93686.44;5048171;28;20478;-76
2022/06/25 01:20:50;;;;;;;4.45;3.20;;;;;;;19.24;53.86;93708.91;5048942;28;20032;-78
2022/06/25 01:23:16;;;;;;;5.68;3.83;;;;;;;19.38;53.61;93713.66;5049745;28;20058;-76
2022/06/25 01:25:41;;;;;;;5.75;4.10;;;;;;;19.23;53.62;93677.69;5046366;28;20711;-77
2022/06/25 01:28:08;;;;;;;3.67;3.25;;;;;;;19.39;53.11;93696.34;5048577;28;20044;-76
2022/06/25 01:30:34;;;;;;;5.68;3.67;;;;;;;19.42;52.71;93709.06;5049618;28;20035;-76
2022/06/25 01:32:59;;;;;;;4.07;3.63;;;;;;;19.27;52.64;93681.19;5048295;28;20041;-76
2022/06/25 01:35:24;;;;;;;4.88;3.38;;;;;;;19.45;52.63;93697.59;5048279;28;20124;-76
2022/06/25 01:37:50;;;;;;;7.07;3.40;;;;;;;19.35;52.56;93680.13;5049512;28;20492;-76
2022/06/25 01:40:16;;;;;;;4.80;3.50;;;;;;;19.26;52.46;93693.16;5049741;28;20036;-77
2022/06/25 01:43:00;;;;;;;6.30;3.63;;;;;;;19.34;52.23;93681.28;5048880;28;20021;-78
2022/06/25 01:45:26;;;;;;;4.47;3.15;;;;;;;19.46;52.70;93707.22;5047616;28;20113;-76
2022/06/25 01:47:52;;;;;;;4.93;3.92;;;;;;;19.37;53.33;93702.09;5048859;28;20499;-76
2022/06/25 01:50:17;;;;;;;4.82;3.95;;;;;;;19.28;53.23;93710.50;5047924;28;20033;-77
2022/06/25 01:52:43;;;;;;;6.85;4.05;;;;;;;19.38;53.28;93719.81;5051180;28;20037;-77
2022/06/25 01:55:09;;;;;;;5.63;3.90;;;;;;;19.39;53.35;93716.00;5045143;28;20527;-75
2022/06/25 01:57:35;;;;;;;10.73;3.72;;;;;;;19.28;53.48;93709.72;5052072;28;20021;-76
2022/06/25 02:00:04;;;;;;;5.15;3.92;;;;;;;19.29;53.56;93703.19;5049375;28;20037;-78
2022/06/25 02:02:29;;;;;;;5.03;4.13;;;;;;;19.31;53.64;93706.28;5048219;28;20025;-78
2022/06/25 02:04:55;;;;;;;3.70;3.17;;;;;;;19.36;53.95;93724.81;5046566;28;20442;-79
2022/06/25 02:07:20;;;;;;;7.93;3.83;;;;;;;19.21;54.17;93715.03;5048850;28;20041;-76
2022/06/25 02:09:46;;;;;;;3.90;3.47;;;;;;;19.23;54.78;93723.53;5047015;28;20492;-76
2022/06/25 02:12:11;;;;;;;5.50;3.90;;;;;;;19.30;54.86;93734.41;5028972;28;20485;-75
2022/06/25 02:14:37;;;;;;;6.63;3.58;;;;;;;19.34;54.46;93735.22;5028258;28;20077;-77
2022/06/25 02:17:02;;;;;;;5.32;4.20;;;;;;;19.40;54.92;93736.44;5026824;28;20390;-75
2022/06/25 02:19:28;;;;;;;6.75;4.05;;;;;;;19.31;54.55;93709.75;5027688;28;20409;-77
2022/06/25 02:21:53;;;;;;;4.60;3.50;;;;;;;19.28;54.67;93701.63;5026810;28;20025;-75
2022/06/25 02:24:19;;;;;;;5.03;3.28;;;;;;;19.28;54.86;93693.53;5027592;28;20044;-77
2022/06/25 02:26:44;;;;;;;4.10;3.70;;;;;;;19.53;55.15;93721.56;5026547;28;20036;-77
2022/06/25 02:29:10;;;;;;;5.43;4.47;;;;;;;19.58;54.33;93712.34;5027820;28;20463;-77
2022/06/25 02:31:35;;;;;;;4.85;3.92;;;;;;;19.75;54.05;93728.69;5028473;28;20087;-78
2022/06/25 02:34:01;;;;;;;6.35;4.05;;;;;;;19.73;54.41;93728.28;5029291;28;20547;-76
2022/06/25 02:36:26;;;;;;;4.63;3.67;;;;;;;19.65;54.46;93718.56;5033237;28;20019;-78
2022/06/25 02:38:52;;;;;;;9.88;4.65;;;;;;;19.63;54.46;93736.28;5033947;28;20044;-77
2022/06/25 02:41:18;;;;;;;7.78;3.95;;;;;;;19.61;54.69;93743.97;5027763;28;20998;-77
2022/06/25 02:43:43;;;;;;;5.53;4.47;;;;;;;19.47;54.07;93728.41;5028813;28;20040;-78
2022/06/25 02:46:09;;;;;;;4.90;4.13;;;;;;;19.63;53.97;93755.94;5027278;28;20048;-77
2022/06/25 02:48:34;;;;;;;4.00;3.53;;;;;;;19.68;53.79;93752.13;5026834;28;20470;-77
2022/06/25 02:51:00;;;;;;;5.35;3.83;;;;;;;19.56;53.91;93726.19;5027493;28;20037;-77
2022/06/25 02:53:25;;;;;;;12.07;5.85;;;;;;;19.60;53.63;93729.69;5027018;28;20040;-76
2022/06/25 03:01:19;;;;;;;4.60;4.10;;;;;;;19.66;53.83;93722.03;5046671;28;20046;-78
2022/06/25 03:03:45;;;;;;;6.93;4.30;;;;;;;19.56;53.92;93711.94;5046952;28;20060;-76
2022/06/25 03:06:10;;;;;;;6.13;4.75;;;;;;;19.55;54.12;93703.09;5048893;28;20128;-76
2022/06/25 03:08:36;;;;;;;5.07;4.53;;;;;;;19.68;55.04;93727.84;5046765;28;20067;-76
2022/06/25 03:11:02;;;;;;;8.10;4.05;;;;;;;19.58;55.28;93706.94;5045647;28;20396;-79
2022/06/25 03:13:29;;;;;;;6.80;4.32;;;;;;;19.78;55.18;93737.19;5045494;28;20416;-77
2022/06/25 03:15:54;;;;;;;6.28;3.70;;;;;;;19.35;55.10;93677.44;5043428;28;20547;-75
2022/06/25 03:18:19;;;;;;;8.13;4.25;;;;;;;19.75;54.71;93727.91;5047139;28;20043;-76
2022/06/25 03:20:45;;;;;;;4.72;3.97;;;;;;;19.77;53.79;93741.03;5046866;28;20400;-78
2022/06/25 03:23:10;;;;;;;8.93;4.35;;;;;;;19.66;54.15;93722.81;5048283;28;20029;-76
2022/06/25 03:25:36;;;;;;;5.25;4.13;;;;;;;19.54;54.54;93708.84;5048019;28;20055;-78
2022/06/25 03:28:01;;;;;;;4.38;3.97;;;;;;;19.69;55.32;93740.97;5034895;28;20067;-78
2022/06/25 03:30:27;;;;;;;5.35;4.32;;;;;;;19.84;55.08;93754.59;5047062;28;20025;-78
2022/06/25 03:32:52;;;;;;;4.35;3.95;;;;;;;19.90;55.69;93753.06;5034801;28;20061;-77
2022/06/25 03:35:17;;;;;;;9.10;4.70;;;;;;;19.89;55.07;93743.44;5041920;28;20031;-76
2022/06/25 03:37:43;;;;;;;6.65;4.53;;;;;;;19.78;55.23;93716.38;5049731;28;20507;-76
2022/06/25 03:40:09;;;;;;;5.78;4.03;;;;;;;20.04;54.84;93735.06;5046077;28;20492;-76
2022/06/25 03:42:35;;;;;;;5.60;3.95;;;;;;;19.47;54.31;93644.81;5048384;28;20028;-77
2022/06/25 03:45:02;;;;;;;4.68;4.18;;;;;;;20.03;54.04;93732.75;5048594;28;20393;-79
2022/06/25 03:47:27;;;;;;;6.43;4.63;;;;;;;19.72;54.66;93697.06;5044714;28;20590;-76
2022/06/25 03:49:53;;;;;;;5.03;4.22;;;;;;;19.93;55.67;93728.06;5045303;28;20330;-78
2022/06/25 03:52:19;;;;;;;5.70;5.03;;;;;;;19.69;55.51;93711.28;5041155;28;20035;-78
2022/06/25 03:54:45;;;;;;;6.20;4.28;;;;;;;19.58;55.75;93688.06;5038658;28;20020;-77
2022/06/25 03:57:10;;;;;;;6.65;4.60;;;;;;;20.04;55.15;93743.16;5030313;28;20070;-78
2022/06/25 03:59:36;;;;;;;6.75;5.40;;;;;;;20.10;54.94;93735.50;5048211;28;20128;-77
2022/06/25 04:02:02;;;;;;;5.50;4.28;;;;;;;20.08;54.30;93724.31;5051326;28;20897;-78
2022/06/25 04:04:27;;;;;;;6.43;4.90;;;;;;;20.15;54.76;93724.34;5050322;28;20041;-77
2022/06/25 04:06:52;;;;;;;9.23;5.38;;;;;;;20.21;54.31;93725.59;5050659;28;20020;-76
2022/06/25 04:09:18;;;;;;;5.32;4.78;;;;;;;20.03;55.73;93700.38;5052279;28;20052;-78
2022/06/25 04:11:46;;;;;;;12.77;7.57;;;;;;;20.05;56.77;93716.94;5050183;28;20039;-77
2022/06/25 04:14:12;;;;;;;13.88;7.70;;;;;;;20.05;56.17;93725.06;5050264;28;20389;-77
2022/06/25 04:16:37;;;;;;;10.95;6.80;;;;;;;20.05;56.23;93735.84;5050703;28;20052;-78
2022/06/25 04:19:02;;;;;;;6.78;5.15;;;;;;;20.12;56.16;93730.50;5049713;28;20097;-78
2022/06/25 04:21:28;;;;;;;6.47;5.50;;;;;;;19.84;56.28;93708.72;5049562;28;20649;-77
2022/06/25 04:23:53;;;;;;;8.43;5.13;;;;;;;20.13;56.74;93751.75;5049393;28;20451;-77
2022/06/25 04:26:19;;;;;;;6.07;5.15;;;;;;;20.08;55.81;93744.00;5049009;28;20115;-76
2022/06/25 04:31:33;;;;;;;9.27;5.68;;;;;;;20.22;55.51;93751.44;5049021;28;20042;-78
2022/06/25 04:33:59;;;;;;;8.10;5.00;;;;;;;19.97;55.71;93728.84;5050162;28;20212;-78
2022/06/25 04:36:26;;;;;;;12.95;6.22;;;;;;;19.97;55.11;93726.16;5051736;28;20547;-76
2022/06/25 04:38:51;;;;;;;10.90;6.03;;;;;;;20.10;55.07;93738.19;5050198;28;20060;-78
2022/06/25 04:41:17;;;;;;;8.13;5.30;;;;;;;20.33;54.99;93741.50;5048900;28;20174;-77
2022/06/25 04:43:43;;;;;;;10.68;6.05;;;;;;;20.46;54.54;93756.25;5047633;28;20060;-77
2022/06/25 04:46:08;;;;;;;7.90;5.72;;;;;;;20.22;54.80;93759.56;5050241;28;20644;-76
2022/06/25 04:48:34;;;;;;;8.95;6.32;;;;;;;20.11;55.07;93745.16;5049984;28;20465;-76
2022/06/25 04:50:59;;;;;;;7.95;5.65;;;;;;;20.23;54.97;93758.41;5048718;28;20492;-78
2022/06/25 04:53:25;;;;;;;7.05;5.85;;;;;;;20.31;55.20;93764.63;5049411;28;20120;-76
2022/06/25 04:55:50;;;;;;;9.98;6.00;;;;;;;20.32;54.67;93748.03;5051654;28;20516;-78
2022/06/25 04:58:16;;;;;;;11.57;6.80;;;;;;;20.14;54.05;93768.72;5042703;28;20040;-77
2022/06/25 05:00:41;;;;;;;8.85;5.82;;;;;;;20.20;53.91;93745.63;5030575;28;20496;-77
2022/06/25 05:03:08;;;;;;;10.93;7.03;;;;;;;20.50;54.17;93769.75;5029075;28;20692;-77
2022/06/25 05:05:34;;;;;;;9.13;6.28;;;;;;;20.51;53.83;93772.09;5045210;28;20037;-77
2022/06/25 05:08:00;;;;;;;9.18;6.20;;;;;;;20.50;53.91;93751.63;5048545;28;20123;-76
2022/06/25 05:10:26;;;;;;;11.70;6.57;;;;;;;20.53;53.73;93767.06;5050443;28;20037;-77
2022/06/25 05:15:36;;;;;;;12.77;6.80;;;;;;;20.81;53.75;93757.59;5049771;28;20055;-75
2022/06/25 05:18:02;;;;;;;11.15;6.72;;;;;;;20.85;53.24;93766.50;5053259;28;20024;-78
2022/06/25 05:20:27;;;;;;;13.57;7.10;;;;;;;20.93;53.31;93762.69;5049593;28;20033;-78
2022/06/25 05:22:53;;;;;;;9.70;7.35;;;;;;;20.92;53.33;93747.66;5049691;28;20741;-78
2022/06/25 05:25:18;;;;;;;9.93;7.80;;;;;;;21.02;53.02;93761.19;5049852;28;20032;-77
2022/06/25 05:27:44;;;;;;;8.75;7.05;;;;;;;21.01;53.29;93754.25;5048829;28;20087;-77
2022/06/25 05:30:10;;;;;;;9.55;7.28;;;;;;;20.86;53.37;93762.63;5049436;28;20244;-77
2022/06/25 05:32:35;;;;;;;9.88;7.80;;;;;;;20.72;54.35;93746.34;5048637;28;20459;-79
2022/06/25 05:35:01;;;;;;;11.00;7.95;;;;;;;20.59;53.62;93741.25;5047012;28;20033;-79
2022/06/25 05:37:26;;;;;;;10.77;8.40;;;;;;;20.88;53.83;93779.25;5048457;28;20029;-77
2022/06/25 05:39:52;;;;;;;12.18;9.05;;;;;;;19.99;54.34;93729.28;5048648;28;20028;-78
2022/06/25 05:42:19;;;;;;;11.32;8.63;;;;;;;19.98;54.94;93760.09;5049536;28;20028;-78
2022/06/25 05:44:45;;;;;;;10.68;7.90;;;;;;;20.26;54.92;93762.25;5048174;28;20622;-77
2022/06/25 05:47:11;;;;;;;18.90;7.78;;;;;;;20.59;55.38;93765.56;5047903;28;20093;-78
2022/06/25 05:49:36;;;;;;;11.43;9.48;;;;;;;20.95;54.60;93776.59;5050325;28;20036;-76
2022/06/25 05:52:02;;;;;;;12.63;8.48;;;;;;;20.81;53.89;93771.88;5047427;28;20060;-78
2022/06/25 05:54:27;;;;;;;9.85;7.32;;;;;;;20.91;53.25;93775.81;5048988;28;20077;-76
2022/06/25 05:56:53;;;;;;;10.38;9.15;;;;;;;21.19;52.63;93781.34;5045687;28;20488;-76
2022/06/25 05:59:18;;;;;;;9.77;6.70;;;;;;;20.76;53.09;93755.25;5049976;28;20098;-75
2022/06/25 06:01:43;;;;;;;8.52;7.32;;;;;;;21.12;53.17;93765.09;5038600;28;20388;-78
2022/06/25 06:04:09;;;;;;;10.95;8.00;;;;;;;21.33;52.49;93780.63;5049592;28;20150;-77
2022/06/25 06:06:34;;;;;;;14.55;7.95;;;;;;;21.35;52.24;93762.88;5054178;28;20133;-77
2022/06/25 06:08:59;;;;;;;10.65;8.38;;;;;;;21.37;52.84;93773.28;5047806;28;20275;-78
2022/06/25 06:11:25;;;;;;;9.75;7.43;;;;;;;21.45;53.91;93781.06;5047616;28;20404;-76
2022/06/25 06:13:51;;;;;;;11.98;7.97;;;;;;;21.81;51.44;93789.25;5037993;28;20124;-77
2022/06/25 06:16:16;;;;;;;10.98;8.50;;;;;;;21.88;51.30;93767.63;5034089;28;20135;-78
2022/06/25 06:18:41;;;;;;;10.23;7.72;;;;;;;21.73;50.84;93739.00;5035563;28;20411;-76
2022/06/25 06:21:07;;;;;;;10.30;7.57;;;;;;;21.76;51.25;93763.34;5041586;28;20415;-76
2022/06/25 06:23:32;;;;;;;9.55;7.38;;;;;;;22.04;50.79;93768.03;5040339;28;20040;-78
2022/06/25 06:25:58;;;;;;;8.73;7.30;;;;;;;21.97;50.83;93770.72;5041732;28;20032;-76
2022/06/25 06:28:23;;;;;;;9.90;7.53;;;;;;;22.22;51.32;93776.97;5047681;28;20064;-78
2022/06/25 06:30:48;;;;;;;10.55;9.25;;;;;;;22.34;51.60;93777.72;5047763;28;20029;-76
2022/06/25 06:33:14;;;;;;;9.98;8.15;;;;;;;22.10;51.97;93752.94;5045136;28;20472;-77
2022/06/25 06:35:39;;;;;;;9.63;7.55;;;;;;;22.27;50.63;93738.66;5048338;28;20037;-77
2022/06/25 06:38:05;;;;;;;12.70;8.13;;;;;;;22.26;51.30;93777.72;5046731;28;20029;-75
2022/06/25 06:40:30;;;;;;;10.20;7.38;;;;;;;22.05;51.04;93776.91;5038661;28;20143;-77
2022/06/25 06:42:56;;;;;;;13.55;8.30;;;;;;;21.95;51.85;93778.44;5048607;28;20128;-75
2022/06/25 06:45:22;;;;;;;8.63;7.72;;;;;;;22.18;51.33;93765.31;5042731;28;20032;-77
2022/06/25 06:47:48;;;;;;;8.82;7.93;;;;;;;22.44;50.30;93755.28;5051388;28;20116;-77
2022/06/25 06:50:13;;;;;;;10.45;8.05;;;;;;;22.53;50.13;93780.03;5046214;28;20619;-80
2022/06/25 06:52:39;;;;;;;9.90;7.32;;;;;;;22.43;49.78;93761.84;5048471;28;20025;-77
2022/06/25 06:55:05;;;;;;;11.43;6.90;;;;;;;22.16;49.84;93762.22;5040315;28;20722;-75
2022/06/25 06:57:32;;;;;;;12.32;7.32;;;;;;;22.50;49.97;93770.75;5041650;28;20032;-78
2022/06/25 06:59:58;;;;;;;10.82;7.38;;;;;;;22.57;49.64;93769.97;5046545;28;20448;-78
2022/06/25 07:02:25;;;;;;;9.55;7.32;;;;;;;22.19;49.65;93755.25;5048729;28;20041;-76
2022/06/25 07:04:52;;;;;;;12.75;7.78;;;;;;;22.23;49.64;93756.84;5034405;28;20037;-79
2022/06/25 07:07:32;;;;;;;12.60;6.80;;;;;;;22.55;49.37;93777.69;5026008;28;20044;-76
2022/06/25 07:09:57;;;;;;;11.63;7.43;;;;;;;22.21;49.48;93780.00;5025375;28;20044;-77
2022/06/25 07:12:23;;;;;;;9.27;6.05;;;;;;;21.87;49.83;93718.13;5040119;28;20060;-78
2022/06/25 07:14:52;;;;;;;7.50;6.60;;;;;;;22.58;50.16;93771.50;5040958;28;20056;-76
2022/06/25 07:17:18;;;;;;;7.03;6.00;;;;;;;21.99;50.11;93735.94;5042982;28;20148;-76
2022/06/25 07:19:43;;;;;;;8.18;6.57;;;;;;;21.92;49.66;93725.09;5048678;28;20090;-77
2022/06/25 07:22:09;;;;;;;10.85;7.35;;;;;;;21.55;49.93;93711.16;5045704;28;20177;-77
2022/06/25 07:24:34;;;;;;;11.32;7.57;;;;;;;22.12;49.70;93752.56;5062347;28;20029;-77
2022/06/25 07:27:00;;;;;;;10.88;6.63;;;;;;;22.60;49.09;93775.38;5045626;28;20048;-80
2022/06/25 07:29:26;;;;;;;10.45;6.93;;;;;;;22.88;48.36;93774.56;5050686;28;20037;-76
2022/06/25 07:31:52;;;;;;;8.55;6.50;;;;;;;22.91;48.35;93756.75;5047640;28;20040;-77
2022/06/25 07:34:17;;;;;;;10.50;7.05;;;;;;;22.89;49.45;93738.13;5062018;28;20082;-79
2022/06/25 07:36:43;;;;;;;11.75;7.15;;;;;;;23.17;48.64;93776.00;5055648;28;20021;-78
2022/06/25 07:39:09;;;;;;;8.82;7.03;;;;;;;23.29;47.48;93782.16;5045753;28;20082;-77
2022/06/25 07:41:35;;;;;;;10.15;6.18;;;;;;;22.49;48.65;93760.28;5046991;28;20141;-77
2022/06/25 07:44:02;;;;;;;10.43;6.82;;;;;;;22.93;49.41;93787.72;5046407;28;20045;-79
2022/06/25 07:46:30;;;;;;;11.15;7.85;;;;;;;22.99;48.83;93794.28;5041849;28;20127;-79
2022/06/25 07:48:56;;;;;;;9.43;6.97;;;;;;;22.93;48.81;93766.00;5027862;28;20025;-77
2022/06/25 07:54:05;;;;;;;8.40;7.32;;;;;;;23.04;49.34;93783.03;5046947;28;20116;-78
2022/06/25 07:56:31;;;;;;;8.35;6.53;;;;;;;22.98;49.87;93773.75;5036996;28;20032;-77
2022/06/25 07:58:56;;;;;;;9.88;7.20;;;;;;;22.64;49.42;93775.34;5041046;28;20457;-79
2022/06/25 08:01:22;;;;;;;9.90;6.80;;;;;;;23.03;49.90;93781.47;5045702;28;20033;-77
2022/06/25 08:03:47;;;;;;;11.68;7.55;;;;;;;23.29;48.22;93776.75;5043962;28;20021;-78
2022/06/25 08:06:13;;;;;;;10.77;6.63;;;;;;;23.36;48.20;93774.00;5046754;28;20024;-77
2022/06/25 08:08:39;;;;;;;9.93;7.75;;;;;;;22.90;48.90;93739.69;5048522;28;20135;-77
2022/06/25 08:11:05;;;;;;;10.07;6.35;;;;;;;23.31;49.69;93758.13;5040887;28;20494;-78
2022/06/25 08:13:31;;;;;;;12.77;7.18;;;;;;;23.58;47.12;93784.38;5046992;28;20892;-79
2022/06/25 08:15:57;;;;;;;9.68;7.47;;;;;;;23.46;47.29;93754.19;5046136;28;20471;-78
2022/06/25 08:18:22;;;;;;;9.13;7.25;;;;;;;23.44;48.35;93779.00;5038998;28;20020;-79
2022/06/25 08:20:48;;;;;;;9.23;7.53;;;;;;;23.36;48.86;93757.72;5037057;28;20913;-77
2022/06/25 08:23:14;;;;;;;13.25;7.78;;;;;;;23.36;47.98;93777.50;5020704;28;20045;-76
2022/06/25 08:25:39;;;;;;;8.45;6.85;;;;;;;23.36;48.10;93760.44;5040090;28;20040;-79
2022/06/25 08:28:05;;;;;;;7.78;6.65;;;;;;;23.65;48.49;93780.09;5042696;28;20137;-78
2022/06/25 08:30:31;;;;;;;8.02;7.22;;;;;;;23.90;47.61;93781.50;5040710;28;20506;-78
2022/06/25 08:32:56;;;;;;;10.02;6.25;;;;;;;23.92;47.54;93757.41;5038623;28;20037;-79
2022/06/25 08:35:23;;;;;;;8.63;7.38;;;;;;;24.09;46.45;93769.31;5042651;28;20505;-77
2022/06/25 08:37:49;;;;;;;10.35;6.38;;;;;;;24.10;46.63;93767.38;5040070;28;20047;-78
2022/06/25 08:40:19;;;;;;;11.45;7.18;;;;;;;23.86;46.13;93748.13;5036298;28;20489;-78
2022/06/25 08:42:48;;;;;;;8.30;6.50;;;;;;;24.06;46.12;93772.81;5027151;28;20483;-76
2022/06/25 08:45:18;;;;;;;8.55;7.43;;;;;;;24.16;46.94;93779.38;5018563;28;20104;-77
2022/06/25 08:47:49;;;;;;;8.70;7.22;;;;;;;23.85;47.34;93781.13;5022733;28;20045;-76
2022/06/25 08:50:16;;;;;;;8.73;7.25;;;;;;;23.84;47.00;93796.66;5025036;28;20042;-76
2022/06/25 08:52:50;;;;;;;11.35;7.10;;;;;;;23.86;47.25;93793.53;5030258;28;20071;-78
2022/06/25 08:55:25;;;;;;;;;;;;;;;23.76;47.80;93789.69;5042973;28;20035;-76
2022/06/25 08:57:50;;;;;;;11.83;7.63;;;;;;;23.86;47.30;93788.88;5046752;28;20389;-75
2022/06/25 09:00:16;;;;;;;11.43;7.30;;;;;;;23.92;48.42;93781.84;5041265;28;20020;-77
2022/06/25 09:02:42;;;;;;;8.82;6.80;;;;;;;23.97;48.34;93751.56;5049574;28;20036;-76
2022/06/25 09:05:11;;;;;;;9.88;7.25;;;;;;;24.27;47.44;93785.50;5037851;28;20190;-77
2022/06/25 09:07:36;;;;;;;15.88;7.35;;;;;;;24.03;47.16;93787.22;5041117;28;20041;-76
2022/06/25 09:10:03;;;;;;;9.38;7.30;;;;;;;24.29;47.45;93791.31;5039488;28;20531;-76
2022/06/25 09:12:28;;;;;;;9.38;7.25;;;;;;;23.87;47.54;93768.69;5049802;28;20724;-76
2022/06/25 09:14:54;;;;;;;9.68;7.50;;;;;;;24.16;46.67;93795.69;5042190;28;20094;-76
2022/06/25 09:17:19;;;;;;;8.38;6.10;;;;;;;24.05;47.79;93778.69;5041623;28;20033;-77
2022/06/25 09:19:52;;;;;;;12.38;8.30;;;;;;;24.40;46.78;93794.72;5041308;28;20036;-77
2022/06/25 09:22:23;;;;;;;9.45;7.35;;;;;;;24.48;45.90;93779.13;5039365;28;20033;-77
2022/06/25 09:24:54;;;;;;;11.20;7.30;;;;;;;24.57;46.95;93793.78;5041997;28;20693;-77
2022/06/25 09:27:40;;;;;;;11.18;7.80;;;;;;;24.75;46.04;93793.66;5048108;28;20029;-77
2022/06/25 09:30:14;;;;;;;9.02;6.68;;;;;;;24.71;45.16;93793.69;5047459;28;20051;-77
2022/06/25 09:32:45;;;;;;;7.93;6.80;;;;;;;24.81;45.50;93781.94;5047428;28;20028;-76
2022/06/25 09:35:12;;;;;;;11.23;7.18;;;;;;;24.66;45.04;93772.34;5039949;28;20029;-77
2022/06/25 09:37:38;;;;;;;9.70;6.82;;;;;;;24.81;46.37;93792.81;5043124;28;20202;-78
2022/06/25 09:40:04;;;;;;;10.13;6.47;;;;;;;24.95;45.84;93791.13;5039175;28;20036;-77
2022/06/25 09:42:32;;;;;;;10.13;7.50;;;;;;;25.04;45.71;93794.13;5039053;28;20025;-78
2022/06/25 09:45:09;;;;;;;12.15;7.43;;;;;;;25.13;45.63;93792.47;5046721;28;20248;-78
2022/06/25 09:47:44;;;;;;;13.73;7.15;;;;;;;24.96;45.16;93765.47;5050079;28;20076;-77
2022/06/25 09:50:13;;;;;;;13.20;8.65;;;;;;;25.04;45.17;93777.81;5046231;28;20040;-77
2022/06/25 09:52:55;;;;;;;12.85;6.50;;;;;;;24.98;44.70;93758.44;5048680;28;20029;-78
2022/06/25 09:55:30;;;;;;;11.77;6.22;;;;;;;24.86;44.98;93772.56;5049863;28;20702;-77
2022/06/25 09:57:55;;;;;;;8.40;6.60;;;;;;;24.62;45.31;93763.47;5054366;28;20027;-78
2022/06/25 10:00:23;;;;;;;11.30;5.85;;;;;;;24.46;45.51;93760.50;5051150;28;20033;-76
2022/06/25 10:02:49;;;;;;;12.10;7.38;;;;;;;24.41;46.90;93753.53;5044805;28;20151;-78
2022/06/25 10:05:23;;;;;;;9.55;7.28;;;;;;;24.34;45.90;93744.69;5049240;28;20021;-77
2022/06/25 10:08:00;;;;;;;13.32;6.85;;;;;;;24.28;46.47;93759.88;5050837;28;20040;-78
2022/06/25 10:10:38;;;;;;;14.05;7.13;;;;;;;24.16;46.85;93750.25;5048152;28;20032;-77
2022/06/25 10:13:04;;;;;;;14.93;7.55;;;;;;;24.08;46.90;93772.44;5047752;28;20036;-77
2022/06/25 10:15:30;;;;;;;8.32;5.93;;;;;;;24.14;46.71;93773.59;5047382;28;20705;-76
2022/06/25 10:17:56;;;;;;;6.75;5.72;;;;;;;23.98;46.51;93768.63;5048933;28;20054;-78
2022/06/25 10:20:23;;;;;;;11.02;7.40;;;;;;;24.07;46.82;93782.53;5047905;28;20488;-76
2022/06/25 10:22:50;;;;;;;9.48;5.95;;;;;;;23.69;47.57;93740.13;5049850;28;20036;-76
2022/06/25 10:25:27;;;;;;;13.57;6.22;;;;;;;23.88;47.03;93758.59;5053189;28;20040;-78
2022/06/25 10:28:06;;;;;;;11.65;6.45;;;;;;;23.96;46.80;93770.94;5047070;28;20025;-76
2022/06/25 10:30:42;;;;;;;11.07;5.50;;;;;;;23.88;46.52;93762.09;5045721;28;20025;-76
2022/06/25 10:33:08;;;;;;;8.40;4.97;;;;;;;23.93;45.91;93733.75;5048259;28;20099;-78
2022/06/25 10:35:35;;;;;;;9.98;4.90;;;;;;;23.72;46.10;93702.06;5045959;28;20708;-77
2022/06/25 10:38:07;;;;;;;7.50;5.05;;;;;;;23.91;45.38;93739.56;5037695;28;20114;-78
2022/06/25 10:40:49;;;;;;;12.27;6.00;;;;;;;24.00;44.98;93755.44;5034503;28;20032;-77
2022/06/25 10:43:41;;;;;;;11.30;5.22;;;;;;;24.13;45.40;93748.34;5045028;28;20128;-78
2022/06/25 10:46:25;;;;;;;9.15;4.47;;;;;;;24.24;45.62;93731.97;5045037;28;20123;-77
2022/06/25 10:48:52;;;;;;;10.48;5.05;;;;;;;24.13;44.95;93726.63;5042434;28;20153;-76
2022/06/25 10:51:47;;;;;;;8.18;6.00;;;;;;;24.14;43.81;93722.75;5047261;28;20035;-76
2022/06/25 10:54:22;;;;;;;8.95;5.50;;;;;;;24.22;44.73;93745.19;5040507;28;20842;-78
2022/06/25 10:56:48;;;;;;;;;;;;;;;24.24;44.97;93742.84;5038845;28;20102;-78
2022/06/25 10:59:33;;;;;;;9.55;5.10;;;;;;;24.34;44.76;93741.97;5036946;28;19920;-76
2022/06/25 11:02:01;;;;;;;9.77;5.20;;;;;;;24.29;44.29;93742.41;5041059;28;20051;-77
2022/06/25 11:04:28;;;;;;;9.57;5.45;;;;;;;24.38;46.83;93737.28;5043596;28;20531;-78
2022/06/25 11:07:07;;;;;;;8.23;5.25;;;;;;;24.53;46.93;93727.81;5034789;28;20036;-77
2022/06/25 11:09:32;;;;;;;10.48;6.03;;;;;;;24.56;44.87;93716.13;5022214;28;20029;-76
2022/06/25 11:11:59;;;;;;;8.25;5.22;;;;;;;24.73;45.49;93726.09;5022720;28;21064;-78
2022/06/25 11:14:26;;;;;;;9.15;5.25;;;;;;;24.78;44.93;93720.19;5035496;28;20045;-76
2022/06/25 11:16:55;;;;;;;10.13;5.47;;;;;;;24.91;45.88;93728.59;5025010;28;20045;-76
2022/06/25 11:19:22;;;;;;;12.57;5.10;;;;;;;24.73;44.63;93704.34;5028494;28;20048;-79
2022/06/25 11:21:48;;;;;;;10.32;5.53;;;;;;;24.73;44.46;93676.38;5023805;28;20033;-78
2022/06/25 11:24:16;;;;;;;8.05;5.50;;;;;;;24.96;44.85;93716.50;5045352;28;20032;-78
2022/06/25 11:29:52;;;;;;;10.70;4.90;;;;;;;25.17;44.11;93699.94;5047082;28;20098;-79
2022/06/25 11:32:23;;;;;;;13.38;5.40;;;;;;;25.27;44.00;93696.28;5046447;28;20061;-79
2022/06/25 11:34:54;;;;;;;9.07;5.65;;;;;;;25.31;43.84;93690.81;5053313;28;20039;-76
2022/06/25 11:37:20;;;;;;;8.55;5.40;;;;;;;25.41;43.67;93679.03;5045938;28;20568;-78
2022/06/25 11:39:47;;;;;;;14.68;6.07;;;;;;;25.51;43.98;93676.16;5046082;28;20201;-76
2022/06/25 11:42:13;;;;;;;10.07;5.25;;;;;;;25.47;42.88;93648.19;5045497;28;20039;-79
2022/06/25 11:44:40;;;;;;;9.10;5.93;;;;;;;25.56;43.02;93683.09;5028666;28;20040;-79
2022/06/25 11:47:06;;;;;;;10.00;4.68;;;;;;;25.40;42.67;93680.19;5031165;28;20045;-76
2022/06/25 11:49:39;;;;;;;7.63;4.32;;;;;;;25.51;42.95;93681.59;5040500;28;20404;-78